createdAt,value
2022-08-17T00:02:27.219Z,7.85
2022-08-17T00:05:33.526Z,10.93
2022-08-17T00:08:44.592Z,8.00
2022-08-17T00:12:40.866Z,10.60
2022-08-17T00:15:13.677Z,7.03
2022-08-17T00:18:53.854Z,9.27
2022-08-17T00:22:32.784Z,8.90
2022-08-17T00:25:13.768Z,7.70
2022-08-17T00:28:17.827Z,8.55
2022-08-17T00:31:22.307Z,10.57
2022-08-17T00:34:25.525Z,7.45
2022-08-17T00:37:31.387Z,8.02
2022-08-17T00:40:40.828Z,9.27
2022-08-17T00:43:54.734Z,9.57
2022-08-17T00:46:57.391Z,8.13
2022-08-17T00:50:00.673Z,9.32
2022-08-17T00:53:06.116Z,10.40
2022-08-17T00:56:13.893Z,8.90
2022-08-17T00:59:20.996Z,10.07
2022-08-17T01:02:24.531Z,10.70
2022-08-17T01:05:31.311Z,9.60
2022-08-17T01:08:36.659Z,7.35
2022-08-17T01:11:40.717Z,9.47
2022-08-17T01:14:44.234Z,9.57
2022-08-17T01:17:48.031Z,9.43
2022-08-17T01:20:53.842Z,9.10
2022-08-17T01:23:56.930Z,8.55
2022-08-17T01:27:00.369Z,10.13
2022-08-17T01:30:57.755Z,8.20
2022-08-17T01:33:31.324Z,9.40
2022-08-17T01:36:34.541Z,9.20
2022-08-17T01:39:43.723Z,8.18
2022-08-17T01:42:51.993Z,10.10
2022-08-17T01:46:02.624Z,8.43
2022-08-17T01:49:11.690Z,8.80
2022-08-17T01:52:15.878Z,14.13
2022-08-17T01:55:27.215Z,8.45
2022-08-17T01:58:32.456Z,8.53
2022-08-17T02:01:36.215Z,8.30
2022-08-17T02:04:39.442Z,11.57
2022-08-17T02:07:59.663Z,11.23
2022-08-17T02:11:11.961Z,9.57
2022-08-17T02:14:14.885Z,8.63
2022-08-17T02:17:18.206Z,8.68
2022-08-17T02:20:41.965Z,8.07
2022-08-17T02:23:48.808Z,8.90
2022-08-17T02:26:51.559Z,10.52
2022-08-17T02:29:54.701Z,6.97
2022-08-17T02:32:57.674Z,8.15
2022-08-17T02:36:00.683Z,9.55
2022-08-17T02:39:06.247Z,11.10
2022-08-17T02:42:09.361Z,8.18
2022-08-17T02:45:17.882Z,11.57
2022-08-17T02:48:30.814Z,11.40
2022-08-17T02:51:35.432Z,11.07
2022-08-17T02:54:41.416Z,10.18
2022-08-17T02:57:45.123Z,10.30
2022-08-17T03:00:48.755Z,14.95
2022-08-17T03:03:51.682Z,21.37
2022-08-17T03:06:54.714Z,15.33
2022-08-17T03:09:57.394Z,13.05
2022-08-17T03:13:01.836Z,15.05
2022-08-17T03:16:04.731Z,13.30
2022-08-17T03:19:07.704Z,20.73
2022-08-17T03:22:35.528Z,17.10
2022-08-17T03:25:37.579Z,15.43
2022-08-17T03:28:41.357Z,10.98
2022-08-17T03:31:45.822Z,16.08
2022-08-17T03:34:48.641Z,11.57
2022-08-17T03:38:00.771Z,12.27
2022-08-17T03:41:06.008Z,12.90
2022-08-17T03:44:09.008Z,13.70
2022-08-17T03:47:30.423Z,13.15
2022-08-17T03:50:52.310Z,14.80
2022-08-17T03:54:15.792Z,10.97
2022-08-17T03:57:20.630Z,13.38
2022-08-17T04:00:23.502Z,13.25
2022-08-17T04:03:26.594Z,11.40
2022-08-17T04:06:29.217Z,11.10
2022-08-17T04:09:32.401Z,14.27
2022-08-17T04:12:50.376Z,13.13
2022-08-17T04:15:53.705Z,11.88
2022-08-17T04:18:56.386Z,16.77
2022-08-17T04:21:59.500Z,17.95
2022-08-17T04:25:27.552Z,13.83
2022-08-17T04:28:31.159Z,12.23
2022-08-17T04:31:34.180Z,9.93
2022-08-17T04:34:37.196Z,11.38
2022-08-17T04:37:39.835Z,11.45
2022-08-17T04:41:02.111Z,16.37
2022-08-17T04:44:05.320Z,11.05
2022-08-17T04:47:10.698Z,9.65
2022-08-17T04:50:18.765Z,11.20
2022-08-17T04:53:21.997Z,11.98
2022-08-17T04:56:27.535Z,12.80
2022-08-17T04:59:30.445Z,11.18
2022-08-17T05:02:33.123Z,9.77
2022-08-17T05:05:39.305Z,8.95
2022-08-17T05:08:42.223Z,11.35
2022-08-17T05:11:46.541Z,8.47
2022-08-17T05:14:49.260Z,12.15
2022-08-17T05:17:52.296Z,11.88
2022-08-17T05:20:55.112Z,8.38
2022-08-17T05:24:01.175Z,9.55
2022-08-17T05:27:08.674Z,8.53
2022-08-17T05:30:12.732Z,10.75
2022-08-17T05:33:18.944Z,9.40
2022-08-17T05:36:42.048Z,8.85
2022-08-17T05:39:44.702Z,10.07
2022-08-17T05:42:51.935Z,8.50
2022-08-17T05:46:16.718Z,10.73
2022-08-17T05:49:27.388Z,9.43
2022-08-17T05:52:40.664Z,11.82
2022-08-17T05:56:30.422Z,8.38
2022-08-17T05:59:37.947Z,14.43
2022-08-17T06:02:50.352Z,9.30
2022-08-17T06:06:04.235Z,11.23
2022-08-17T06:09:52.478Z,8.90
2022-08-17T06:13:10.433Z,8.35
2022-08-17T06:16:33.521Z,11.30
2022-08-17T06:19:46.000Z,11.88
2022-08-17T06:22:52.602Z,10.65
2022-08-17T06:26:03.963Z,9.60
2022-08-17T06:29:37.383Z,9.52
2022-08-17T06:32:46.365Z,9.57
2022-08-17T06:36:10.280Z,12.00
2022-08-17T06:39:23.574Z,8.32
2022-08-17T06:43:06.093Z,11.12
2022-08-17T06:46:18.237Z,9.15
2022-08-17T06:49:33.349Z,12.20
2022-08-17T06:52:52.969Z,8.43
2022-08-17T06:55:58.351Z,8.13
2022-08-17T06:59:03.289Z,7.70
2022-08-17T07:02:08.897Z,9.88
2022-08-17T07:05:15.995Z,10.13
2022-08-17T07:08:27.731Z,13.15
2022-08-17T07:11:51.579Z,7.70
2022-08-17T07:15:05.747Z,8.88
2022-08-17T07:18:09.546Z,10.80
2022-08-17T07:21:42.706Z,9.27
2022-08-17T07:24:59.818Z,10.35
2022-08-17T07:28:07.428Z,9.23
2022-08-17T07:31:13.519Z,11.20
2022-08-17T07:34:17.837Z,12.37
2022-08-17T07:37:21.189Z,11.83
2022-08-17T07:40:36.281Z,9.43
2022-08-17T07:43:42.298Z,8.73
2022-08-17T07:47:12.605Z,9.68
2022-08-17T07:50:29.193Z,12.18
2022-08-17T07:53:32.320Z,8.83
2022-08-17T07:56:41.525Z,9.65
2022-08-17T08:00:16.971Z,12.50
2022-08-17T08:03:28.578Z,8.27
2022-08-17T08:06:31.368Z,9.65
2022-08-17T08:09:43.463Z,8.17
2022-08-17T08:12:53.714Z,9.88
2022-08-17T08:16:12.523Z,8.57
2022-08-17T08:19:20.865Z,8.27
2022-08-17T08:22:35.685Z,8.50
2022-08-17T08:25:53.350Z,7.27
2022-08-17T08:29:43.921Z,9.13
2022-08-17T08:33:17.470Z,10.35
2022-08-17T08:37:12.523Z,12.07
2022-08-17T08:40:34.273Z,11.32
2022-08-17T08:44:01.689Z,8.53
2022-08-17T08:48:05.978Z,9.07
2022-08-17T08:51:54.310Z,12.30
2022-08-17T08:55:05.779Z,10.27
2022-08-17T08:58:43.825Z,8.20
2022-08-17T09:02:08.094Z,7.70
2022-08-17T09:05:29.690Z,7.93
2022-08-17T09:09:21.833Z,11.20
2022-08-17T09:12:33.501Z,7.35
2022-08-17T09:16:00.563Z,10.02
2022-08-17T09:19:11.967Z,8.50
2022-08-17T09:22:34.411Z,8.40
2022-08-17T09:25:50.066Z,6.87
2022-08-17T09:29:01.752Z,7.50
2022-08-17T09:32:17.876Z,17.92
2022-08-17T09:35:36.939Z,9.00
2022-08-17T09:39:06.207Z,9.80
2022-08-17T09:42:20.085Z,8.68
2022-08-17T09:45:45.565Z,9.38
2022-08-17T09:49:00.154Z,7.12
2022-08-17T09:52:11.420Z,9.93
2022-08-17T09:55:14.390Z,8.02
2022-08-17T09:59:05.169Z,7.03
2022-08-17T10:02:13.721Z,6.47
2022-08-17T10:05:57.021Z,7.95
2022-08-17T10:09:20.509Z,7.73
2022-08-17T10:12:29.845Z,9.90
2022-08-17T10:15:59.656Z,8.07
2022-08-17T10:19:43.997Z,5.60
2022-08-17T10:23:12.450Z,8.52
2022-08-17T10:26:23.358Z,9.90
2022-08-17T10:29:47.375Z,8.70
2022-08-17T10:33:06.952Z,7.20
2022-08-17T10:36:24.667Z,6.20
2022-08-17T10:39:51.900Z,14.68
2022-08-17T10:43:04.789Z,8.60
2022-08-17T10:46:33.730Z,6.68
2022-08-17T10:49:38.990Z,6.65
2022-08-17T10:52:42.121Z,6.97
2022-08-17T10:56:13.820Z,8.70
2022-08-17T10:59:35.383Z,9.93
2022-08-17T11:02:49.744Z,7.00
2022-08-17T11:06:05.473Z,8.80
2022-08-17T11:09:35.393Z,8.23
2022-08-17T11:12:54.762Z,6.62
2022-08-17T11:16:38.068Z,5.97
2022-08-17T11:20:18.593Z,6.85
2022-08-17T11:23:43.354Z,7.15
2022-08-17T11:27:03.650Z,8.23
2022-08-17T11:30:11.201Z,7.20
2022-08-17T11:33:36.680Z,7.47
2022-08-17T11:37:05.880Z,7.37
2022-08-17T11:40:34.047Z,6.82
2022-08-17T11:43:55.753Z,10.10
2022-08-17T11:47:42.778Z,7.95
2022-08-17T11:51:17.600Z,8.00
2022-08-17T11:54:39.132Z,6.05
2022-08-17T11:57:53.593Z,5.90
2022-08-17T12:01:01.076Z,5.93
2022-08-17T12:04:29.287Z,6.28
2022-08-17T12:07:33.889Z,7.30
2022-08-17T12:10:58.341Z,7.22
2022-08-17T12:14:01.571Z,9.57
2022-08-17T12:17:39.317Z,5.82
2022-08-17T12:20:47.793Z,6.97
2022-08-17T12:24:01.658Z,6.97
2022-08-17T12:27:09.339Z,6.82
2022-08-17T12:30:15.514Z,10.25
2022-08-17T12:33:25.779Z,8.98
2022-08-17T12:36:34.284Z,7.72
2022-08-17T12:39:51.664Z,5.53
2022-08-17T12:43:04.350Z,6.70
2022-08-17T12:46:14.790Z,5.85
2022-08-17T12:49:27.474Z,5.12
2022-08-17T12:52:33.073Z,5.45
2022-08-17T12:55:37.672Z,6.20
2022-08-17T12:58:49.234Z,6.47
2022-08-17T13:01:53.226Z,6.30
2022-08-17T13:05:00.157Z,7.12
2022-08-17T13:08:26.524Z,8.60
2022-08-17T13:11:29.211Z,7.80
2022-08-17T13:14:33.305Z,6.15
2022-08-17T13:17:37.352Z,5.70
2022-08-17T13:20:53.516Z,6.85
2022-08-17T13:24:11.284Z,6.75
2022-08-17T13:27:15.561Z,6.63
2022-08-17T13:30:28.128Z,10.27
2022-08-17T13:33:43.664Z,6.30
2022-08-17T13:36:48.838Z,5.55
2022-08-17T13:40:02.674Z,5.80
2022-08-17T13:43:05.626Z,5.57
2022-08-17T13:46:11.916Z,6.70
2022-08-17T13:49:14.905Z,4.65
2022-08-17T13:52:38.952Z,6.25
2022-08-17T13:55:49.442Z,6.55
2022-08-17T13:58:55.751Z,6.37
2022-08-17T14:01:59.012Z,4.70
2022-08-17T14:05:06.144Z,7.75
2022-08-17T14:08:11.853Z,5.20
2022-08-17T14:11:17.413Z,6.25
2022-08-17T14:14:22.505Z,6.70
2022-08-17T14:17:29.154Z,8.05
2022-08-17T14:20:31.965Z,6.85
2022-08-17T14:23:35.381Z,5.75
2022-08-17T14:26:38.235Z,6.03
2022-08-17T14:29:41.451Z,5.90
2022-08-17T14:32:45.506Z,5.57
2022-08-17T14:35:54.991Z,6.53
2022-08-17T14:38:57.834Z,5.07
2022-08-17T14:42:01.355Z,7.28
2022-08-17T14:45:06.864Z,6.37
2022-08-17T14:48:31.016Z,5.68
2022-08-17T14:51:33.682Z,7.30
2022-08-17T14:54:39.352Z,4.90
2022-08-17T14:57:47.104Z,6.87
2022-08-17T15:00:53.584Z,5.30
2022-08-17T15:03:56.198Z,7.68
2022-08-17T15:06:59.257Z,5.40
2022-08-17T15:10:02.772Z,5.97
2022-08-17T15:13:24.240Z,5.35
2022-08-17T15:16:27.250Z,5.63
2022-08-17T15:19:31.017Z,8.32
2022-08-17T15:22:33.903Z,4.53
2022-08-17T15:25:36.838Z,5.05
2022-08-17T15:28:39.589Z,4.20
2022-08-17T15:31:43.169Z,6.77
2022-08-17T15:34:45.879Z,5.95
2022-08-17T15:37:48.976Z,4.43
2022-08-17T15:40:54.069Z,6.53
2022-08-17T15:43:57.309Z,6.05
2022-08-17T15:47:02.166Z,6.87
2022-08-17T15:50:07.347Z,5.50
2022-08-17T15:53:11.268Z,5.62
2022-08-17T15:56:18.201Z,6.43
2022-08-17T15:59:20.859Z,4.43
2022-08-17T16:03:47.146Z,4.83
2022-08-17T16:05:52.310Z,4.70
2022-08-17T16:08:56.031Z,4.75
2022-08-17T16:12:09.084Z,4.82
2022-08-17T16:15:13.592Z,5.25
2022-08-17T16:18:17.314Z,6.93
2022-08-17T16:21:26.804Z,5.53
2022-08-17T16:24:31.095Z,5.03
2022-08-17T16:27:34.357Z,5.85
2022-08-17T16:30:38.448Z,4.82
2022-08-17T16:33:43.152Z,5.60
2022-08-17T16:37:06.140Z,6.57
2022-08-17T16:40:09.318Z,5.13
2022-08-17T16:43:12.372Z,5.65
2022-08-17T16:46:15.155Z,5.53
2022-08-17T16:49:36.057Z,5.00
2022-08-17T16:52:40.876Z,5.30
2022-08-17T16:55:45.753Z,6.53
2022-08-17T16:58:48.396Z,7.40
2022-08-17T17:01:53.844Z,5.45
2022-08-17T17:05:02.737Z,6.80
2022-08-17T17:08:25.801Z,7.10
2022-08-17T17:11:40.481Z,5.57
2022-08-17T17:14:46.742Z,6.00
2022-08-17T17:17:52.199Z,7.35
2022-08-17T17:20:57.615Z,5.03
2022-08-17T17:24:07.271Z,5.43
2022-08-17T17:27:13.244Z,5.50
2022-08-17T17:30:30.052Z,6.22
2022-08-17T17:33:49.454Z,11.43
2022-08-17T17:36:58.236Z,5.82
2022-08-17T17:40:12.789Z,6.03
2022-08-17T17:43:37.799Z,12.77
2022-08-17T17:46:52.536Z,10.82
2022-08-17T17:49:55.250Z,7.53
2022-08-17T17:53:18.616Z,11.25
2022-08-17T17:56:53.251Z,10.67
2022-08-17T18:00:16.827Z,6.13
2022-08-17T18:03:44.501Z,14.13
2022-08-17T18:07:13.270Z,7.87
2022-08-17T18:10:31.762Z,8.90
2022-08-17T18:14:14.534Z,11.83
2022-08-17T18:17:18.501Z,8.80
2022-08-17T18:20:35.979Z,7.00
2022-08-17T18:23:58.362Z,7.07
2022-08-17T18:27:08.614Z,7.70
2022-08-17T18:30:14.642Z,9.23
2022-08-17T18:33:26.995Z,7.90
2022-08-17T18:36:36.635Z,8.63
2022-08-17T18:39:39.426Z,12.60
2022-08-17T18:42:57.269Z,11.52
2022-08-17T18:46:28.636Z,11.43
2022-08-17T18:49:33.834Z,8.97
2022-08-17T18:52:36.596Z,12.90
2022-08-17T18:55:39.793Z,9.18
2022-08-17T18:58:42.991Z,11.57
2022-08-17T19:01:59.296Z,13.03
2022-08-17T19:05:11.335Z,14.03
2022-08-17T19:08:16.510Z,11.05
2022-08-17T19:11:29.773Z,12.73
2022-08-17T19:14:33.275Z,9.45
2022-08-17T19:17:48.653Z,11.03
2022-08-17T19:20:58.779Z,13.17
2022-08-17T19:24:19.757Z,11.88
2022-08-17T19:27:43.917Z,12.15
2022-08-17T19:30:51.407Z,11.95
2022-08-17T19:33:55.948Z,9.93
2022-08-17T19:37:19.544Z,9.97
2022-08-17T19:40:52.760Z,9.85
2022-08-17T19:44:12.433Z,9.40
2022-08-17T19:47:54.207Z,7.62
2022-08-17T19:51:12.862Z,7.40
2022-08-17T19:54:31.370Z,16.43
2022-08-17T19:57:49.755Z,7.68
2022-08-17T20:00:54.641Z,8.82
2022-08-17T20:04:07.345Z,12.82
2022-08-17T20:07:15.567Z,11.23
2022-08-17T20:10:27.127Z,10.30
2022-08-17T20:13:52.658Z,6.72
2022-08-17T20:16:59.284Z,8.48
2022-08-17T20:20:37.276Z,8.52
2022-08-17T20:24:01.120Z,8.20
2022-08-17T20:27:18.653Z,9.67
2022-08-17T20:30:38.230Z,9.35
2022-08-17T20:33:41.275Z,9.98
2022-08-17T20:37:09.110Z,11.60
2022-08-17T20:40:19.409Z,8.20
2022-08-17T20:43:34.481Z,8.13
2022-08-17T20:46:37.520Z,10.65
2022-08-17T20:49:51.557Z,9.23
2022-08-17T20:52:57.836Z,9.10
2022-08-17T20:56:00.960Z,8.77
2022-08-17T20:59:03.906Z,9.13
2022-08-17T21:02:18.664Z,11.75
2022-08-17T21:05:34.842Z,8.68
2022-08-17T21:08:53.910Z,8.18
2022-08-17T21:12:05.307Z,8.73
2022-08-17T21:15:24.565Z,10.63
2022-08-17T21:18:38.948Z,10.05
2022-08-17T21:22:11.198Z,12.77
2022-08-17T21:25:48.441Z,7.95
2022-08-17T21:29:31.706Z,12.60
2022-08-17T21:32:35.795Z,10.33
2022-08-17T21:35:49.653Z,8.18
2022-08-17T21:39:09.059Z,7.45
2022-08-17T21:42:12.599Z,11.65
2022-08-17T21:45:43.127Z,8.97
2022-08-17T21:48:54.538Z,8.80
2022-08-17T21:51:57.553Z,12.18
2022-08-17T21:55:02.659Z,9.80
2022-08-17T21:58:19.520Z,9.82
2022-08-17T22:01:26.064Z,14.47
2022-08-17T22:04:30.889Z,13.00
2022-08-17T22:07:48.678Z,9.07
2022-08-17T22:11:01.406Z,8.15
2022-08-17T22:14:17.509Z,10.90
2022-08-17T22:17:22.669Z,8.07
2022-08-17T22:20:25.455Z,9.07
2022-08-17T22:23:56.270Z,9.13
2022-08-17T22:27:11.114Z,11.18
2022-08-17T22:30:25.189Z,10.15
2022-08-17T22:33:37.316Z,8.30
2022-08-17T22:36:42.338Z,10.53
2022-08-17T22:39:45.546Z,11.80
2022-08-17T22:42:48.898Z,11.10
2022-08-17T22:45:54.794Z,11.43
2022-08-17T22:48:59.680Z,7.83
2022-08-17T22:52:31.563Z,8.43
2022-08-17T22:55:54.042Z,12.57
2022-08-17T22:59:17.272Z,9.60
2022-08-17T23:02:29.992Z,10.07
2022-08-17T23:05:34.328Z,11.27
2022-08-17T23:08:50.412Z,7.70
2022-08-17T23:11:59.745Z,11.48
2022-08-17T23:15:03.603Z,10.52
2022-08-17T23:18:08.130Z,9.10
2022-08-17T23:21:13.391Z,11.17
2022-08-17T23:24:32.829Z,7.77
2022-08-17T23:27:37.153Z,7.95
2022-08-17T23:30:42.355Z,8.85
2022-08-17T23:33:46.211Z,10.55
2022-08-17T23:36:53.375Z,10.10
2022-08-17T23:39:56.463Z,8.57
2022-08-17T23:43:05.966Z,6.97
2022-08-17T23:46:25.888Z,8.45
2022-08-17T23:49:28.978Z,7.93
2022-08-17T23:52:37.908Z,8.47
2022-08-17T23:55:40.601Z,10.60
2022-08-17T23:58:45.033Z,6.97
